createdAt,value
2023-03-23T15:58:23.070Z,12.40
2023-03-23T16:00:52.574Z,13.45
2023-03-23T16:03:25.279Z,12.68
2023-03-23T16:05:52.307Z,13.45
2023-03-23T16:08:19.372Z,12.25
2023-03-23T16:10:47.647Z,13.32
2023-03-23T16:13:14.845Z,13.90
2023-03-23T16:15:43.336Z,13.80
2023-03-23T16:18:17.672Z,13.93
2023-03-23T16:20:44.724Z,13.27
2023-03-23T16:23:11.628Z,13.13
2023-03-23T16:25:44.860Z,13.30
2023-03-23T16:28:13.100Z,13.57
2023-03-23T16:30:44.218Z,12.98
2023-03-23T16:33:11.607Z,13.45
2023-03-23T16:35:38.857Z,13.05
2023-03-23T16:38:08.142Z,13.10
2023-03-23T16:40:36.246Z,13.60
2023-03-23T16:43:08.591Z,14.88
2023-03-23T16:45:37.036Z,14.30
2023-03-23T16:48:05.558Z,13.73
2023-03-23T16:50:33.464Z,13.35
2023-03-23T16:53:00.899Z,13.05
2023-03-23T16:55:28.581Z,14.73
2023-03-23T16:58:05.488Z,14.20
2023-03-23T17:00:41.504Z,13.60
2023-03-23T17:03:10.015Z,13.88
2023-03-23T17:05:37.708Z,14.15
2023-03-23T17:08:06.067Z,13.23
2023-03-23T17:10:33.572Z,14.00
2023-03-23T17:13:00.983Z,14.15
2023-03-23T17:15:27.979Z,12.45
2023-03-23T17:17:55.371Z,14.30
2023-03-23T17:20:24.495Z,13.75
2023-03-23T17:22:51.852Z,13.65
2023-03-23T17:25:19.068Z,13.90
2023-03-23T17:27:46.007Z,14.13
2023-03-23T17:30:13.148Z,13.60
2023-03-23T17:32:40.528Z,13.80
2023-03-23T17:35:08.106Z,13.40
2023-03-23T17:37:37.892Z,13.45
2023-03-23T17:40:08.474Z,13.40
2023-03-23T17:42:35.514Z,14.82
2023-03-23T17:45:02.483Z,14.40
2023-03-23T17:47:29.542Z,15.65
2023-03-23T17:49:57.072Z,16.52
2023-03-23T17:52:24.402Z,16.77
2023-03-23T17:54:54.045Z,33.50
2023-03-23T17:57:21.076Z,31.23
2023-03-23T17:59:48.064Z,23.85
2023-03-23T18:02:15.592Z,27.45
2023-03-23T18:04:42.840Z,18.85
2023-03-23T18:07:09.958Z,17.75
2023-03-23T18:09:37.161Z,18.95
2023-03-23T18:12:06.412Z,19.13
2023-03-23T18:14:33.354Z,21.83
2023-03-23T18:17:00.776Z,25.17
2023-03-23T18:19:28.908Z,28.55
2023-03-23T18:21:56.008Z,18.08
2023-03-23T18:24:25.137Z,14.20
2023-03-23T18:26:52.159Z,21.83
2023-03-23T18:29:20.644Z,24.63
2023-03-23T18:31:47.757Z,32.55
2023-03-23T18:34:14.766Z,21.33
2023-03-23T18:36:41.711Z,21.88
2023-03-23T18:39:10.798Z,21.00
2023-03-23T18:41:38.006Z,17.42
2023-03-23T18:44:05.211Z,15.70
2023-03-23T18:46:33.783Z,16.20
2023-03-23T18:49:00.910Z,15.05
2023-03-23T18:51:27.910Z,12.85
2023-03-23T18:53:55.202Z,13.70
2023-03-23T18:56:22.385Z,12.98
2023-03-23T18:58:52.649Z,15.88
2023-03-23T19:01:19.781Z,22.02
2023-03-23T19:03:48.525Z,15.15
2023-03-23T19:06:19.420Z,14.70
2023-03-23T19:08:47.268Z,14.45
2023-03-23T19:11:14.860Z,12.73
2023-03-23T19:13:53.774Z,13.63
2023-03-23T19:16:25.773Z,60.38
2023-03-23T19:18:54.092Z,63.65
2023-03-23T19:21:25.264Z,23.05
2023-03-23T19:23:52.836Z,20.85
2023-03-23T19:26:23.111Z,18.05
2023-03-23T19:31:25.049Z,13.63
2023-03-23T19:33:53.029Z,42.38
2023-03-23T19:36:22.861Z,27.55
2023-03-23T19:38:50.691Z,14.02
2023-03-23T19:41:19.009Z,12.48
2023-03-23T19:43:46.454Z,14.45
2023-03-23T19:46:14.590Z,12.45
2023-03-23T19:48:41.750Z,12.38
2023-03-23T19:51:11.417Z,12.45
2023-03-23T19:53:40.185Z,12.20
2023-03-23T19:56:12.583Z,11.40
2023-03-23T19:58:39.990Z,11.15
2023-03-23T20:01:08.064Z,11.15
2023-03-23T20:03:36.101Z,11.15
2023-03-23T20:06:07.105Z,11.25
2023-03-23T20:08:34.429Z,10.98
2023-03-23T20:11:04.360Z,10.93
2023-03-23T20:13:31.364Z,11.68
2023-03-23T20:16:00.693Z,11.88
2023-03-23T20:18:29.801Z,13.48
2023-03-23T20:21:01.899Z,15.27
2023-03-23T20:23:29.082Z,14.65
2023-03-23T20:25:59.045Z,15.30
2023-03-23T20:28:28.513Z,15.00
2023-03-23T20:31:19.879Z,15.73
2023-03-23T20:34:00.353Z,15.80
2023-03-23T20:36:31.197Z,14.45
2023-03-23T20:38:58.250Z,13.70
2023-03-23T20:41:25.303Z,14.70
2023-03-23T20:43:54.165Z,15.25
2023-03-23T20:46:24.155Z,14.02
2023-03-23T20:48:51.703Z,12.98
2023-03-23T20:51:18.887Z,14.05
2023-03-23T20:53:46.633Z,13.68
2023-03-23T20:56:14.153Z,13.23
2023-03-23T20:58:41.544Z,12.43
2023-03-23T21:01:11.991Z,13.02
2023-03-23T21:03:41.158Z,12.85
2023-03-23T21:06:08.609Z,14.00
2023-03-23T21:08:37.247Z,13.30
2023-03-23T21:11:05.916Z,14.25
2023-03-23T21:13:33.485Z,13.95
2023-03-23T21:16:02.103Z,14.35
2023-03-23T21:18:31.257Z,13.25
2023-03-23T21:21:00.319Z,14.18
2023-03-23T21:23:29.602Z,12.65
2023-03-23T21:26:00.580Z,13.73
2023-03-23T21:28:28.582Z,12.77
2023-03-23T21:30:59.813Z,12.15
2023-03-23T21:33:26.715Z,13.95
2023-03-23T21:35:55.289Z,13.38
2023-03-23T21:38:26.075Z,13.48
2023-03-23T21:40:53.212Z,14.25
2023-03-23T21:43:27.566Z,14.60
2023-03-23T21:45:57.294Z,14.50
2023-03-23T21:48:25.270Z,14.68
2023-03-23T21:50:54.143Z,14.13
2023-03-23T21:53:22.421Z,12.98
2023-03-23T21:55:54.566Z,11.63
2023-03-23T21:58:26.788Z,12.63
2023-03-23T22:00:54.636Z,12.13
2023-03-23T22:03:23.550Z,12.48
2023-03-23T22:05:54.679Z,13.30
2023-03-23T22:08:25.277Z,13.38
2023-03-23T22:11:00.705Z,13.70
2023-03-23T22:13:30.507Z,12.20
2023-03-23T22:15:58.157Z,12.25
2023-03-23T22:18:25.500Z,11.60
2023-03-23T22:20:52.590Z,11.85
2023-03-23T22:23:19.799Z,10.65
2023-03-23T22:25:48.394Z,12.57
2023-03-23T22:28:15.509Z,11.38
2023-03-23T22:30:42.496Z,11.27
2023-03-23T22:33:09.548Z,11.15
2023-03-23T22:35:36.787Z,10.57
2023-03-23T22:38:03.822Z,10.30
2023-03-23T22:40:31.418Z,11.13
2023-03-23T22:42:59.911Z,11.32
2023-03-23T22:45:30.130Z,10.82
2023-03-23T22:47:58.143Z,9.50
2023-03-23T22:50:27.562Z,10.43
2023-03-23T22:52:54.542Z,9.27
2023-03-23T22:55:21.600Z,9.43
2023-03-23T22:57:48.638Z,9.68
2023-03-23T23:00:18.642Z,7.63
2023-03-23T23:02:45.820Z,7.25
2023-03-23T23:05:13.768Z,9.00
2023-03-23T23:07:40.843Z,8.93
2023-03-23T23:10:09.251Z,8.90
2023-03-23T23:12:36.486Z,8.48
2023-03-23T23:15:05.905Z,8.77
2023-03-23T23:17:34.950Z,8.27
2023-03-23T23:20:05.657Z,9.02
2023-03-23T23:22:33.177Z,8.35
2023-03-23T23:25:00.649Z,8.20
2023-03-23T23:27:27.736Z,9.27
2023-03-23T23:29:54.942Z,10.43
2023-03-23T23:32:22.034Z,10.85
2023-03-23T23:34:53.012Z,9.35
2023-03-23T23:37:20.096Z,8.38
2023-03-23T23:39:47.845Z,8.65
2023-03-23T23:42:14.815Z,9.52
2023-03-23T23:44:43.294Z,9.60
2023-03-23T23:47:11.354Z,9.57
2023-03-23T23:49:38.617Z,10.45
2023-03-23T23:52:08.698Z,10.20
2023-03-23T23:54:37.614Z,9.93
2023-03-23T23:57:05.763Z,9.00
2023-03-23T23:59:32.800Z,8.88
